Time;durP1;ratioP1;P1;durP2;ratioP2;P2;SDS_P1;SDS_P2;PMS_P1;PMS_P2;Temp;Humidity;BMP_temperature;BMP_pressure;BME280_temperature;BME280_humidity;BME280_pressure;Samples;Min_cycle;Max_cycle;Signal;HPM_P1;HPM_P2
2024/02/03 00:01:44;;;;;;;1.10;1.10;;;15.30;73.20;;;;;;5020134;28;20514;-83
2024/02/03 00:04:10;;;;;;;1.30;1.23;;;15.30;73.30;;;;;;5020804;28;20041;-83
2024/02/03 00:06:35;;;;;;;1.20;1.10;;;15.30;73.20;;;;;;5001339;28;20099;-84
2024/02/03 00:09:02;;;;;;;1.10;1.10;;;15.30;73.20;;;;;;5021603;28;20474;-83
2024/02/03 00:11:28;;;;;;;1.05;1.05;;;15.30;73.20;;;;;;5013108;28;20284;-83
2024/02/03 00:13:53;;;;;;;1.00;1.00;;;15.30;73.30;;;;;;5019195;28;20041;-84
2024/02/03 00:16:19;;;;;;;1.05;1.05;;;15.30;73.20;;;;;;5020592;28;20022;-84
2024/02/03 00:18:44;;;;;;;1.23;1.23;;;15.30;73.30;;;;;;5017751;28;20612;-84
2024/02/03 00:21:10;;;;;;;1.33;1.25;;;15.30;73.20;;;;;;5016850;28;20037;-82
2024/02/03 00:23:36;;;;;;;1.20;1.20;;;15.30;73.20;;;;;;5019629;28;20029;-85
2024/02/03 00:26:01;;;;;;;1.20;1.20;;;15.30;73.50;;;;;;5020782;28;20277;-85
2024/02/03 00:28:27;;;;;;;1.25;1.25;;;15.30;73.50;;;;;;5022310;28;20139;-86
2024/02/03 00:30:53;;;;;;;1.10;1.10;;;15.30;73.50;;;;;;5020648;28;20068;-84
2024/02/03 00:33:18;;;;;;;1.20;1.20;;;15.30;73.30;;;;;;5020993;28;20030;-85
2024/02/03 00:35:44;;;;;;;1.42;1.42;;;15.30;73.30;;;;;;5020369;28;20203;-85
2024/02/03 00:38:09;;;;;;;1.33;1.33;;;15.30;73.30;;;;;;5006059;28;20102;-82
2024/02/03 00:40:35;;;;;;;1.17;1.00;;;15.30;73.30;;;;;;5023135;28;20268;-83
2024/02/03 00:43:01;;;;;;;1.00;1.00;;;15.30;73.50;;;;;;5020485;28;20052;-82
2024/02/03 00:45:26;;;;;;;1.30;1.30;;;15.30;73.40;;;;;;5020756;28;20297;-82
2024/02/03 00:47:52;;;;;;;1.48;1.40;;;15.30;73.50;;;;;;5021846;28;20041;-82
2024/02/03 00:50:17;;;;;;;1.20;1.20;;;15.30;73.50;;;;;;5020734;28;20125;-82
2024/02/03 00:52:43;;;;;;;1.50;1.40;;;15.30;73.70;;;;;;5006404;28;20087;-83
2024/02/03 00:55:09;;;;;;;2.35;1.05;;;15.30;73.90;;;;;;5021656;28;20392;-82
2024/02/03 00:57:36;;;;;;;1.00;1.00;;;15.30;73.90;;;;;;5007317;28;20098;-82
2024/02/03 01:00:03;;;;;;;1.13;1.13;;;15.30;74.00;;;;;;5019768;28;20037;-82
2024/02/03 01:02:29;;;;;;;1.40;1.30;;;15.20;73.90;;;;;;5020485;28;20052;-82
2024/02/03 01:04:54;;;;;;;1.27;1.20;;;15.30;74.10;;;;;;5022253;28;20057;-82
2024/02/03 01:07:20;;;;;;;1.35;1.25;;;15.20;74.10;;;;;;5023662;28;20171;-81
2024/02/03 01:09:46;;;;;;;1.20;1.20;;;15.20;74.10;;;;;;5019731;28;20052;-82
2024/02/03 01:12:11;;;;;;;1.10;1.10;;;15.20;74.00;;;;;;5005689;28;20476;-83
2024/02/03 01:14:37;;;;;;;1.05;1.05;;;15.30;74.00;;;;;;5022509;28;20071;-83
2024/02/03 01:17:04;;;;;;;0.90;0.90;;;15.20;74.10;;;;;;5019218;28;20037;-83
2024/02/03 01:19:30;;;;;;;1.05;0.95;;;15.20;74.10;;;;;;5024175;28;20042;-82
2024/02/03 01:21:56;;;;;;;1.10;1.10;;;15.30;74.20;;;;;;5019745;28;20518;-82
2024/02/03 01:24:21;;;;;;;1.05;1.05;;;15.20;74.10;;;;;;4989553;28;20041;-82
2024/02/03 01:26:47;;;;;;;0.77;0.77;;;15.20;74.20;;;;;;5007704;28;20038;-82
2024/02/03 01:29:12;;;;;;;0.88;0.88;;;15.20;74.10;;;;;;5009250;28;20129;-82
2024/02/03 01:31:39;;;;;;;1.00;1.00;;;15.20;74.10;;;;;;5010831;28;20056;-82
2024/02/03 01:34:04;;;;;;;1.27;1.27;;;15.20;74.10;;;;;;5026947;28;20046;-83
2024/02/03 01:36:30;;;;;;;0.90;0.90;;;15.30;74.20;;;;;;5024769;28;20064;-83
2024/02/03 01:38:56;;;;;;;1.10;1.10;;;15.20;74.10;;;;;;5025191;28;20518;-82
2024/02/03 01:41:22;;;;;;;1.08;1.08;;;15.20;74.10;;;;;;5025133;28;20041;-82
2024/02/03 01:43:47;;;;;;;0.90;0.90;;;15.20;74.20;;;;;;5025376;28;20053;-82
2024/02/03 01:46:14;;;;;;;0.82;0.82;;;15.20;74.20;;;;;;5023632;28;20042;-82
2024/02/03 01:48:39;;;;;;;0.90;0.90;;;15.20;74.10;;;;;;5008965;28;20152;-82
2024/02/03 01:51:06;;;;;;;1.05;1.05;;;15.20;74.40;;;;;;5025405;28;20518;-83
2024/02/03 01:53:32;;;;;;;1.17;1.17;;;15.20;74.40;;;;;;5009249;28;20061;-82
2024/02/03 01:55:58;;;;;;;0.80;0.80;;;15.20;74.20;;;;;;5023129;28;20042;-81
2024/02/03 01:58:24;;;;;;;0.90;0.90;;;15.20;74.20;;;;;;5026240;28;20033;-81
2024/02/03 02:00:49;;;;;;;0.90;0.90;;;15.20;74.30;;;;;;5023233;28;20056;-81
2024/02/03 02:03:15;;;;;;;0.90;0.90;;;15.20;74.40;;;;;;5006530;28;20045;-81
2024/02/03 02:05:40;;;;;;;1.00;1.00;;;15.20;74.30;;;;;;5024991;28;20045;-82
2024/02/03 02:08:06;;;;;;;0.80;0.80;;;15.20;74.40;;;;;;5022498;28;20408;-82
2024/02/03 02:10:32;;;;;;;0.95;0.85;;;15.20;74.40;;;;;;5026291;28;20107;-83
2024/02/03 02:12:57;;;;;;;0.95;0.95;;;15.20;74.40;;;;;;5024018;28;20050;-82
2024/02/03 02:15:23;;;;;;;0.85;0.85;;;15.20;74.40;;;;;;5024639;28;20487;-82
2024/02/03 02:17:48;;;;;;;0.80;0.80;;;15.20;74.40;;;;;;5025165;28;20052;-83
2024/02/03 02:20:14;;;;;;;0.90;0.90;;;15.20;74.50;;;;;;5022640;28;20050;-83
2024/02/03 02:22:40;;;;;;;1.20;0.70;;;15.20;74.50;;;;;;5027034;28;20042;-81
2024/02/03 02:25:06;;;;;;;0.90;0.90;;;15.20;74.40;;;;;;5024527;28;20554;-81
2024/02/03 02:27:31;;;;;;;0.60;0.60;;;15.20;74.40;;;;;;5022010;28;20091;-82
2024/02/03 02:29:57;;;;;;;0.80;0.80;;;15.20;74.50;;;;;;5022782;28;20502;-83
2024/02/03 02:32:23;;;;;;;0.80;0.80;;;15.20;74.50;;;;;;5025414;28;20041;-82
2024/02/03 02:34:48;;;;;;;0.80;0.80;;;15.20;74.50;;;;;;5024614;28;20052;-82
2024/02/03 02:37:14;;;;;;;0.90;0.90;;;15.20;74.40;;;;;;5023260;28;20117;-81
2024/02/03 02:39:40;;;;;;;0.93;0.88;;;15.20;74.50;;;;;;4992945;28;20052;-82
2024/02/03 02:42:06;;;;;;;1.67;0.90;;;15.20;74.50;;;;;;5022768;28;20042;-82
2024/02/03 02:44:32;;;;;;;1.05;0.80;;;15.20;74.60;;;;;;5021080;28;20099;-82
2024/02/03 02:46:58;;;;;;;1.00;1.00;;;15.20;74.60;;;;;;5022926;28;20061;-82
2024/02/03 02:49:23;;;;;;;0.80;0.80;;;15.20;74.60;;;;;;5007952;28;20041;-82
2024/02/03 02:51:49;;;;;;;0.70;0.70;;;15.20;74.50;;;;;;5024615;28;20041;-82
2024/02/03 02:54:14;;;;;;;1.00;0.90;;;15.20;74.60;;;;;;5025427;28;20454;-78
2024/02/03 02:56:40;;;;;;;0.60;0.60;;;15.20;74.60;;;;;;5008274;28;20466;-82
2024/02/03 02:59:06;;;;;;;0.98;0.77;;;15.20;74.60;;;;;;5025174;28;20042;-82
2024/02/03 03:01:31;;;;;;;0.93;0.85;;;15.20;74.60;;;;;;5008851;28;20037;-82
2024/02/03 03:03:57;;;;;;;0.63;0.63;;;15.20;74.50;;;;;;5024364;28;20124;-82
2024/02/03 03:06:23;;;;;;;0.50;0.50;;;15.20;74.60;;;;;;5021084;28;20103;-82
2024/02/03 03:08:48;;;;;;;0.60;0.60;;;15.20;74.50;;;;;;5020744;28;20037;-82
2024/02/03 03:11:14;;;;;;;0.80;0.80;;;15.20;74.60;;;;;;5023902;28;20041;-82
2024/02/03 03:13:39;;;;;;;0.80;0.80;;;15.20;74.70;;;;;;5024332;28;20055;-82
2024/02/03 03:16:07;;;;;;;0.45;0.45;;;15.20;74.60;;;;;;5023203;28;20439;-82
2024/02/03 03:18:32;;;;;;;0.65;0.65;;;15.20;74.60;;;;;;5023334;28;20530;-82
2024/02/03 03:20:58;;;;;;;0.60;0.60;;;15.10;74.60;;;;;;5024575;28;20037;-82
2024/02/03 03:23:24;;;;;;;0.45;0.45;;;15.20;74.60;;;;;;5005695;28;20045;-82
2024/02/03 03:25:50;;;;;;;0.50;0.50;;;15.20;74.60;;;;;;5024128;28;20046;-83
2024/02/03 03:28:15;;;;;;;0.98;0.60;;;15.20;75.40;;;;;;5009541;28;20558;-82
2024/02/03 03:30:41;;;;;;;0.70;0.70;;;15.20;75.40;;;;;;5004495;28;20160;-82
2024/02/03 03:33:07;;;;;;;0.60;0.60;;;15.10;74.60;;;;;;5008255;28;20411;-83
2024/02/03 03:35:33;;;;;;;0.98;0.57;;;15.20;74.60;;;;;;5020959;28;20045;-83
2024/02/03 03:37:59;;;;;;;0.70;0.60;;;15.20;74.60;;;;;;5007911;28;20052;-83
2024/02/03 03:40:24;;;;;;;0.60;0.60;;;15.20;74.70;;;;;;5024324;28;20076;-82
2024/02/03 03:42:50;;;;;;;0.55;0.55;;;15.10;74.60;;;;;;5023025;28;20121;-82
2024/02/03 03:45:17;;;;;;;0.50;0.50;;;15.20;74.70;;;;;;5020132;28;20124;-82
2024/02/03 03:47:42;;;;;;;0.77;0.77;;;15.10;74.60;;;;;;5021262;28;20048;-82
2024/02/03 03:50:08;;;;;;;1.77;0.70;;;15.10;74.60;;;;;;5007178;28;20490;-82
2024/02/03 03:52:34;;;;;;;0.50;0.50;;;15.10;74.50;;;;;;5004703;28;20077;-82
2024/02/03 03:55:00;;;;;;;0.30;0.30;;;15.10;74.50;;;;;;5022351;28;20040;-83
2024/02/03 03:57:26;;;;;;;0.60;0.60;;;15.10;74.60;;;;;;5006615;28;20041;-83
2024/02/03 03:59:52;;;;;;;0.60;0.60;;;15.20;74.60;;;;;;5004755;28;20039;-83
2024/02/03 04:02:18;;;;;;;0.50;0.50;;;15.20;74.50;;;;;;5020029;28;20503;-83
2024/02/03 04:04:44;;;;;;;0.40;0.40;;;15.20;75.50;;;;;;5006983;28;20033;-83
2024/02/03 04:07:10;;;;;;;0.70;0.57;;;15.10;74.80;;;;;;5007596;28;20423;-83
2024/02/03 04:09:35;;;;;;;0.40;0.40;;;15.10;74.60;;;;;;5005317;28;20033;-81
2024/02/03 04:12:01;;;;;;;0.50;0.50;;;15.10;74.60;;;;;;5022795;28;20041;-81
2024/02/03 04:14:26;;;;;;;0.60;0.60;;;15.10;74.50;;;;;;5017666;28;20558;-81
2024/02/03 04:16:52;;;;;;;0.40;0.40;;;15.10;74.60;;;;;;5006631;28;20067;-81
2024/02/03 04:19:17;;;;;;;0.50;0.50;;;15.10;74.50;;;;;;5023867;28;20078;-82
2024/02/03 04:21:43;;;;;;;0.73;0.50;;;15.10;74.60;;;;;;5020815;28;20072;-82
2024/02/03 04:24:08;;;;;;;0.30;0.30;;;15.10;74.60;;;;;;5006490;28;20041;-82
2024/02/03 04:26:34;;;;;;;0.50;0.50;;;15.10;74.60;;;;;;5006046;28;20037;-82
2024/02/03 04:29:00;;;;;;;0.55;0.55;;;15.10;74.50;;;;;;5007046;28;20422;-82
2024/02/03 04:31:25;;;;;;;1.05;0.60;;;15.10;74.60;;;;;;5023435;28;20048;-82
2024/02/03 04:33:51;;;;;;;0.57;0.57;;;15.10;74.60;;;;;;5021108;28;20045;-82
2024/02/03 04:36:19;;;;;;;0.30;0.30;;;15.20;74.60;;;;;;5020671;28;20411;-82
2024/02/03 04:38:45;;;;;;;0.40;0.40;;;15.10;74.60;;;;;;4989525;28;20165;-82
2024/02/03 04:41:23;;;;;;;0.50;0.50;;;15.10;74.50;;;;;;5005744;28;20037;-82
2024/02/03 04:43:49;;;;;;;0.52;0.52;;;15.10;74.50;;;;;;5021834;28;20103;-82
2024/02/03 04:46:14;;;;;;;0.47;0.47;;;15.10;74.60;;;;;;5006395;28;20037;-82
2024/02/03 04:48:42;;;;;;;0.30;0.30;;;15.10;74.50;;;;;;5021815;28;20419;-82
2024/02/03 04:51:08;;;;;;;0.50;0.50;;;15.10;74.50;;;;;;5019022;28;20595;-82
2024/02/03 04:53:33;;;;;;;0.45;0.45;;;15.10;74.50;;;;;;5002212;28;20038;-82
2024/02/03 04:55:59;;;;;;;0.30;0.30;;;15.10;74.50;;;;;;5023049;28;20042;-82
2024/02/03 04:58:24;;;;;;;0.60;0.60;;;15.10;74.50;;;;;;5025832;28;20042;-82
2024/02/03 05:00:50;;;;;;;0.30;0.30;;;15.10;74.50;;;;;;5024548;28;20099;-82
2024/02/03 05:03:15;;;;;;;0.88;0.52;;;15.10;74.40;;;;;;5027981;28;20037;-82
2024/02/03 05:05:41;;;;;;;0.55;0.55;;;15.10;74.50;;;;;;5025424;28;20100;-82
2024/02/03 05:08:06;;;;;;;0.47;0.40;;;15.10;74.40;;;;;;5027254;28;20084;-80
2024/02/03 05:10:32;;;;;;;0.85;0.70;;;15.10;74.40;;;;;;5027249;28;20530;-81
2024/02/03 05:12:57;;;;;;;0.43;0.43;;;15.10;74.50;;;;;;5009853;28;21143;-81
2024/02/03 05:15:23;;;;;;;0.40;0.38;;;15.10;74.50;;;;;;5025957;28;20472;-80
2024/02/03 05:17:49;;;;;;;0.40;0.40;;;15.10;74.30;;;;;;5007915;28;20052;-81
2024/02/03 05:20:15;;;;;;;0.30;0.30;;;15.10;74.50;;;;;;5011376;28;20088;-81
2024/02/03 05:22:41;;;;;;;0.95;0.40;;;15.10;74.30;;;;;;5013770;28;20045;-83
2024/02/03 05:25:07;;;;;;;0.43;0.20;;;15.10;74.30;;;;;;5024280;28;20049;-81
2024/02/03 05:27:32;;;;;;;0.40;0.40;;;15.10;74.30;;;;;;5010239;28;20049;-82
2024/02/03 05:30:00;;;;;;;0.30;0.30;;;15.10;74.40;;;;;;5023424;28;22503;-82
2024/02/03 05:32:26;;;;;;;0.38;0.35;;;15.10;74.40;;;;;;5024583;28;20049;-82
2024/02/03 05:34:51;;;;;;;0.30;0.30;;;15.10;74.30;;;;;;5026555;28;20063;-82
2024/02/03 05:37:17;;;;;;;0.30;0.30;;;15.10;74.40;;;;;;5009327;28;20305;-81
2024/02/03 05:39:44;;;;;;;1.13;0.28;;;15.10;74.30;;;;;;5010662;28;20052;-84
2024/02/03 05:42:10;;;;;;;0.30;0.30;;;15.10;74.30;;;;;;5023353;28;20083;-83
2024/02/03 05:44:35;;;;;;;0.43;0.30;;;15.10;74.30;;;;;;5005683;28;20046;-83
2024/02/03 05:47:01;;;;;;;0.20;0.20;;;15.10;74.30;;;;;;5024299;28;20507;-84
2024/02/03 05:49:26;;;;;;;0.30;0.30;;;15.10;74.30;;;;;;5026579;28;20507;-82
2024/02/03 05:51:52;;;;;;;0.20;0.20;;;15.10;74.20;;;;;;5024627;28;20131;-83
2024/02/03 05:54:17;;;;;;;0.40;0.40;;;15.10;74.20;;;;;;5024214;28;20076;-83
2024/02/03 05:56:43;;;;;;;0.35;0.35;;;15.10;74.20;;;;;;5025231;28;20038;-85
2024/02/03 05:59:08;;;;;;;0.20;0.20;;;15.10;74.30;;;;;;5023121;28;20038;-82
2024/02/03 06:01:34;;;;;;;0.40;0.40;;;15.10;74.20;;;;;;5026915;28;20049;-83
2024/02/03 06:04:00;;;;;;;0.40;0.40;;;15.10;74.20;;;;;;5023158;28;20045;-83
2024/02/03 06:06:25;;;;;;;0.20;0.17;;;15.10;74.20;;;;;;5023338;28;20550;-82
2024/02/03 06:08:51;;;;;;;0.30;0.30;;;15.10;74.20;;;;;;5037435;28;21079;-82
2024/02/03 06:11:16;;;;;;;0.75;0.40;;;15.10;74.20;;;;;;5022691;28;20038;-82
2024/02/03 06:13:42;;;;;;;0.63;0.30;;;15.10;74.20;;;;;;5026033;28;20042;-81
2024/02/03 06:16:07;;;;;;;0.50;0.30;;;15.10;74.20;;;;;;5022818;28;20045;-81
2024/02/03 06:18:33;;;;;;;0.30;0.30;;;15.10;74.20;;;;;;5021778;28;20033;-82
2024/02/03 06:20:58;;;;;;;0.28;0.28;;;15.10;74.10;;;;;;5025353;28;20499;-81
2024/02/03 06:23:24;;;;;;;0.40;0.40;;;15.10;74.20;;;;;;5023852;28;20041;-82
2024/02/03 06:25:49;;;;;;;0.28;0.28;;;15.10;74.20;;;;;;5024850;28;20132;-82
2024/02/03 06:28:15;;;;;;;0.20;0.20;;;15.10;74.20;;;;;;5022335;28;20044;-82
2024/02/03 06:30:41;;;;;;;1.38;0.25;;;15.10;74.20;;;;;;5025160;28;20072;-82
2024/02/03 06:33:06;;;;;;;0.93;0.40;;;15.10;74.10;;;;;;5008762;28;20048;-84
2024/02/03 06:35:32;;;;;;;0.20;0.20;;;15.10;74.10;;;;;;5023953;28;20034;-82
2024/02/03 06:37:58;;;;;;;0.28;0.28;;;15.10;74.10;;;;;;5025916;28;20407;-81
2024/02/03 06:40:24;;;;;;;0.70;0.47;;;15.10;74.10;;;;;;5026938;28;20037;-82
2024/02/03 06:42:49;;;;;;;0.30;0.30;;;15.10;74.10;;;;;;5004930;28;20041;-82
2024/02/03 06:45:16;;;;;;;0.20;0.20;;;15.10;74.10;;;;;;4670144;28;10000614;-82
2024/02/03 06:47:41;;;;;;;0.25;0.25;;;15.10;73.80;;;;;;5019610;28;20049;-83
2024/02/03 06:50:07;;;;;;;0.38;0.30;;;15.10;73.80;;;;;;5022239;28;20095;-82
2024/02/03 06:52:34;;;;;;;1.40;1.30;;;15.20;73.90;;;;;;4990832;28;20045;-80
2024/02/03 06:54:59;;;;;;;1.10;1.10;;;15.20;78.60;;;;;;5019675;28;20049;-80
2024/02/03 06:57:25;;;;;;;0.77;0.77;;;15.20;76.80;;;;;;5018812;28;20053;-82
2024/02/03 06:59:50;;;;;;;0.88;0.47;;;15.20;77.00;;;;;;5005145;28;20045;-83
2024/02/03 07:02:16;;;;;;;1.48;0.40;;;15.30;75.80;;;;;;5002741;28;20049;-84
2024/02/03 07:04:41;;;;;;;0.35;0.35;;;15.20;75.60;;;;;;5023427;28;20045;-82
2024/02/03 07:07:07;;;;;;;0.43;0.43;;;15.20;75.70;;;;;;5019041;28;20759;-83
2024/02/03 07:09:33;;;;;;;0.57;0.35;;;15.20;75.60;;;;;;5021771;28;20152;-83
2024/02/03 07:11:58;;;;;;;0.40;0.40;;;15.20;75.50;;;;;;5005977;28;20037;-82
2024/02/03 07:14:24;;;;;;;1.63;0.47;;;15.20;75.50;;;;;;5022215;28;20045;-83
2024/02/03 07:16:49;;;;;;;1.00;0.40;;;15.20;75.10;;;;;;5022862;28;20064;-83
2024/02/03 07:19:15;;;;;;;0.77;0.30;;;15.20;75.10;;;;;;5021062;28;20049;-83
2024/02/03 07:21:40;;;;;;;2.00;0.40;;;15.20;75.00;;;;;;5019083;28;20053;-83
2024/02/03 07:24:06;;;;;;;0.45;0.30;;;15.20;75.60;;;;;;5019682;28;20120;-83
2024/02/03 07:26:31;;;;;;;0.50;0.50;;;15.20;74.80;;;;;;5019489;28;20064;-83
2024/02/03 07:28:57;;;;;;;0.93;0.30;;;15.20;74.80;;;;;;5003441;28;20038;-82
2024/02/03 07:31:29;;;;;;;0.30;0.30;;;15.20;74.60;;;;;;5022720;28;20037;-82
2024/02/03 07:33:55;;;;;;;0.28;0.28;;;15.20;74.60;;;;;;5020876;28;20165;-82
2024/02/03 07:36:21;;;;;;;0.52;0.35;;;15.20;74.50;;;;;;5021938;28;20045;-86
2024/02/03 07:38:47;;;;;;;0.68;0.38;;;15.30;74.40;;;;;;5023198;28;20048;-82
2024/02/03 07:41:21;;;;;;;0.63;0.22;;;15.20;74.40;;;;;;5029248;27;21055;-84
2024/02/03 07:43:47;;;;;;;1.20;0.28;;;15.20;74.10;;;;;;5016127;28;20057;-82
2024/02/03 07:46:12;;;;;;;0.30;0.25;;;15.30;73.70;;;;;;5020984;28;20037;-84
2024/02/03 07:48:38;;;;;;;0.40;0.20;;;15.40;73.70;;;;;;5019152;28;20056;-83
2024/02/03 07:51:05;;;;;;;0.38;0.30;;;15.30;73.70;;;;;;5016894;28;20400;-85
2024/02/03 07:53:30;;;;;;;1.08;0.30;;;15.30;73.80;;;;;;5032209;28;20096;-85
2024/02/03 07:55:56;;;;;;;0.65;0.25;;;15.30;73.30;;;;;;5019374;28;20458;-85
2024/02/03 07:58:21;;;;;;;0.20;0.20;;;15.30;73.40;;;;;;5018914;28;20124;-85
2024/02/03 08:00:47;;;;;;;0.20;0.20;;;15.20;73.70;;;;;;5028934;28;20073;-85
2024/02/03 08:03:12;;;;;;;0.45;0.20;;;15.20;73.80;;;;;;5002679;28;20061;-85
2024/02/03 08:05:38;;;;;;;0.20;0.20;;;15.20;74.00;;;;;;5018807;28;20042;-85
2024/02/03 08:08:04;;;;;;;0.20;0.20;;;15.20;74.10;;;;;;5021735;28;20503;-85
2024/02/03 08:10:29;;;;;;;1.27;0.30;;;15.20;73.90;;;;;;5032688;28;20427;-84
2024/02/03 08:12:55;;;;;;;1.20;0.22;;;15.20;73.50;;;;;;5014410;28;20042;-84
2024/02/03 08:15:21;;;;;;;0.25;0.25;;;15.20;73.80;;;;;;5033422;28;20060;-84
2024/02/03 08:17:46;;;;;;;0.20;0.20;;;15.20;73.50;;;;;;5018448;28;20049;-84
2024/02/03 08:20:12;;;;;;;0.50;0.40;;;15.20;74.40;;;;;;5016093;28;20106;-84
2024/02/03 08:22:38;;;;;;;0.63;0.25;;;15.20;73.70;;;;;;5019924;28;20565;-84
2024/02/03 08:25:06;;;;;;;0.40;0.28;;;15.20;73.60;;;;;;5030472;28;20097;-84
2024/02/03 08:27:31;;;;;;;1.75;0.22;;;15.20;73.90;;;;;;4987506;28;20507;-84
2024/02/03 08:29:57;;;;;;;0.40;0.40;;;15.20;73.60;;;;;;5000456;28;20038;-84
2024/02/03 08:32:24;;;;;;;0.25;0.20;;;15.20;73.70;;;;;;5034155;28;20113;-84
2024/02/03 08:34:50;;;;;;;0.65;0.20;;;15.20;73.70;;;;;;5015999;28;20485;-84
2024/02/03 08:37:16;;;;;;;0.20;0.20;;;15.20;73.70;;;;;;5015296;28;20065;-84
2024/02/03 08:39:41;;;;;;;0.20;0.20;;;15.20;73.50;;;;;;5035265;28;20076;-84
2024/02/03 08:42:07;;;;;;;0.22;0.20;;;15.20;73.60;;;;;;5029723;28;20061;-84
2024/02/03 08:44:32;;;;;;;0.10;0.10;;;15.20;73.50;;;;;;5014690;28;20454;-84
2024/02/03 08:46:58;;;;;;;0.30;0.20;;;15.20;73.50;;;;;;5019441;28;20045;-84
2024/02/03 08:49:23;;;;;;;0.35;0.10;;;15.20;73.50;;;;;;5002432;28;20046;-84
2024/02/03 08:51:49;;;;;;;1.63;0.10;;;15.20;73.50;;;;;;5022444;28;20484;-84
2024/02/03 08:54:15;;;;;;;0.10;0.10;;;15.20;73.50;;;;;;5002463;28;20056;-84
2024/02/03 08:56:41;;;;;;;0.10;0.10;;;15.20;73.60;;;;;;5018215;28;20510;-84
2024/02/03 08:59:07;;;;;;;0.45;0.22;;;15.20;73.60;;;;;;5005465;28;20420;-84
2024/02/03 09:01:32;;;;;;;0.20;0.20;;;15.20;73.60;;;;;;5023020;28;20038;-84
2024/02/03 09:03:58;;;;;;;0.20;0.20;;;15.20;73.40;;;;;;5003045;28;20042;-84
2024/02/03 09:06:24;;;;;;;0.10;0.10;;;15.20;73.40;;;;;;5021522;28;20041;-84
2024/02/03 09:08:51;;;;;;;0.30;0.20;;;15.20;73.40;;;;;;5003073;28;20049;-84
2024/02/03 09:11:16;;;;;;;0.40;0.22;;;15.20;74.40;;;;;;5005966;28;20053;-84
2024/02/03 09:13:42;;;;;;;0.60;0.20;;;15.20;73.60;;;;;;5004305;28;20046;-84
2024/02/03 09:16:07;;;;;;;0.60;0.22;;;15.20;73.50;;;;;;4985498;28;20111;-83
2024/02/03 09:18:33;;;;;;;0.20;0.20;;;15.20;73.50;;;;;;5010837;28;20056;-84
2024/02/03 09:20:58;;;;;;;0.22;0.10;;;15.20;73.60;;;;;;5005155;28;20586;-84
2024/02/03 09:23:24;;;;;;;0.10;0.10;;;15.20;73.70;;;;;;5004065;28;20042;-84
2024/02/03 09:25:51;;;;;;;0.30;0.30;;;15.20;73.50;;;;;;5018932;28;20095;-84
2024/02/03 09:28:17;;;;;;;0.32;0.20;;;15.20;73.50;;;;;;5004405;28;20126;-83
2024/02/03 09:30:43;;;;;;;1.00;0.30;;;15.20;73.40;;;;;;5015763;28;20136;-83
2024/02/03 09:33:08;;;;;;;0.43;0.25;;;15.20;73.80;;;;;;4997816;28;20129;-84
2024/02/03 09:35:34;;;;;;;0.30;0.10;;;15.20;73.40;;;;;;5002278;28;20046;-84
2024/02/03 09:37:59;;;;;;;0.40;0.20;;;15.20;73.50;;;;;;5018213;28;20125;-84
2024/02/03 09:40:25;;;;;;;1.65;0.20;;;15.20;73.30;;;;;;5004300;28;20042;-84
2024/02/03 09:42:51;;;;;;;0.10;0.10;;;15.10;73.40;;;;;;5018365;28;20496;-85
2024/02/03 09:45:18;;;;;;;1.15;0.30;;;15.20;73.50;;;;;;5015748;28;20046;-84
2024/02/03 09:47:44;;;;;;;0.20;0.20;;;15.10;73.30;;;;;;5013598;28;20038;-83
2024/02/03 09:50:09;;;;;;;0.38;0.30;;;15.20;73.50;;;;;;5005233;28;20137;-84
2024/02/03 09:52:37;;;;;;;0.30;0.15;;;15.20;73.40;;;;;;5021228;28;20037;-84
2024/02/03 09:55:03;;;;;;;0.55;0.20;;;15.20;73.20;;;;;;5003835;28;20053;-84
2024/02/03 09:57:29;;;;;;;0.30;0.30;;;15.20;73.20;;;;;;5018358;28;20056;-84
2024/02/03 09:59:56;;;;;;;0.65;0.20;;;15.10;73.30;;;;;;5004158;28;20042;-84
2024/02/03 10:02:22;;;;;;;0.20;0.20;;;15.20;73.30;;;;;;5017956;28;20048;-84
2024/02/03 10:04:47;;;;;;;0.25;0.22;;;15.10;73.10;;;;;;5001102;28;20042;-84
2024/02/03 10:07:17;;;;;;;0.65;0.20;;;15.10;73.30;;;;;;5004882;28;20108;-84
2024/02/03 10:09:42;;;;;;;0.47;0.20;;;15.10;73.20;;;;;;5014219;28;20523;-84
2024/02/03 10:12:19;;;;;;;0.57;0.40;;;15.20;73.60;;;;;;5018789;28;20058;-84
2024/02/03 10:14:45;;;;;;;0.20;0.10;;;15.20;73.20;;;;;;5004342;28;20042;-83
2024/02/03 10:17:10;;;;;;;0.70;0.22;;;15.20;73.10;;;;;;4986774;28;20596;-84
2024/02/03 10:19:36;;;;;;;0.20;0.20;;;15.10;73.00;;;;;;4987844;28;20036;-84
2024/02/03 10:22:02;;;;;;;0.20;0.20;;;15.20;73.20;;;;;;4972279;28;20046;-84
2024/02/03 10:24:28;;;;;;;0.30;0.20;;;15.20;73.20;;;;;;5018620;28;20496;-84
2024/02/03 10:27:01;;;;;;;0.20;0.20;;;15.20;73.50;;;;;;5014209;28;20566;-84
2024/02/03 10:29:26;;;;;;;0.10;0.10;;;15.10;73.30;;;;;;5006110;28;20515;-84
2024/02/03 10:31:52;;;;;;;0.25;0.20;;;15.20;73.00;;;;;;5004888;28;20050;-84
2024/02/03 10:34:18;;;;;;;0.22;0.10;;;15.10;73.00;;;;;;5006950;28;20034;-84
2024/02/03 10:36:44;;;;;;;0.52;0.20;;;15.10;72.90;;;;;;5016377;28;20037;-84
2024/02/03 10:39:10;;;;;;;0.10;0.10;;;15.20;72.90;;;;;;5021117;28;20034;-84
2024/02/03 10:41:38;;;;;;;0.40;0.20;;;15.10;72.90;;;;;;5015721;28;20046;-84
2024/02/03 10:44:05;;;;;;;0.20;0.20;;;15.10;72.90;;;;;;5015184;28;20038;-83
2024/02/03 10:46:31;;;;;;;0.70;0.20;;;15.10;72.90;;;;;;5003120;28;20101;-84
2024/02/03 10:48:57;;;;;;;0.30;0.20;;;15.20;72.80;;;;;;4990898;28;20516;-84
2024/02/03 10:51:24;;;;;;;0.20;0.10;;;15.20;73.00;;;;;;5017442;28;20096;-84
2024/02/03 10:53:53;;;;;;;1.67;0.38;;;15.10;72.90;;;;;;5014886;28;20546;-84
2024/02/03 10:56:19;;;;;;;0.65;0.28;;;15.10;72.90;;;;;;4988388;28;20041;-84
2024/02/03 10:58:44;;;;;;;0.20;0.20;;;15.10;72.90;;;;;;5003975;28;20056;-83
2024/02/03 11:01:16;;;;;;;0.08;0.05;;;15.20;72.80;;;;;;4999396;28;20530;-84
2024/02/03 11:03:42;;;;;;;0.25;0.20;;;15.10;72.70;;;;;;4999397;28;20064;-79
2024/02/03 11:06:08;;;;;;;0.20;0.20;;;15.20;72.80;;;;;;5018904;28;20403;-84
2024/02/03 11:08:34;;;;;;;2.35;0.22;;;15.20;73.00;;;;;;5001279;28;20042;-84
2024/02/03 11:10:59;;;;;;;0.13;0.13;;;15.20;72.70;;;;;;4999078;28;20045;-84
2024/02/03 11:13:27;;;;;;;0.10;0.10;;;15.20;72.60;;;;;;5004459;28;20044;-84
2024/02/03 11:15:59;;;;;;;0.17;0.10;;;15.20;72.60;;;;;;5013147;28;20519;-81
2024/02/03 11:18:25;;;;;;;0.10;0.10;;;15.20;72.80;;;;;;5002186;28;20034;-84
2024/02/03 11:20:56;;;;;;;0.60;0.20;;;15.20;72.70;;;;;;5001447;28;20057;-85
2024/02/03 11:23:21;;;;;;;0.10;0.10;;;15.20;72.70;;;;;;4992430;28;20057;-84
2024/02/03 11:25:49;;;;;;;0.17;0.17;;;15.20;72.80;;;;;;5015545;28;20092;-84
2024/02/03 11:28:15;;;;;;;0.45;0.22;;;15.20;73.20;;;;;;4999908;28;20053;-82
2024/02/03 11:30:40;;;;;;;0.20;0.20;;;15.30;73.50;;;;;;5005650;28;20041;-83
2024/02/03 11:33:06;;;;;;;0.35;0.20;;;15.20;73.00;;;;;;5003162;28;20107;-86
2024/02/03 11:35:32;;;;;;;0.35;0.13;;;15.30;73.90;;;;;;5016281;28;20056;-84
2024/02/03 11:38:07;;;;;;;0.15;0.10;;;15.20;73.10;;;;;;5002078;28;20061;-82
2024/02/03 11:40:40;;;;;;;0.20;0.20;;;15.30;73.20;;;;;;4653973;28;9999743;-85
2024/02/03 11:43:06;;;;;;;0.50;0.40;;;15.30;73.20;;;;;;4670395;28;9999602;-83
2024/02/03 11:45:32;;;;;;;0.50;0.50;;;15.30;75.10;;;;;;4998422;28;20607;-83
2024/02/03 11:47:58;;;;;;;0.93;0.50;;;15.30;77.80;;;;;;5013117;28;20470;-83
2024/02/03 11:50:24;;;;;;;0.40;0.40;;;15.30;78.60;;;;;;5010904;28;20420;-84
2024/02/03 11:52:50;;;;;;;0.40;0.40;;;15.30;77.10;;;;;;4998087;28;20053;-85
2024/02/03 11:55:15;;;;;;;0.20;0.13;;;15.30;76.60;;;;;;5000832;28;20128;-84
2024/02/03 11:57:42;;;;;;;0.68;0.20;;;15.30;76.10;;;;;;4999727;28;20311;-84
2024/02/03 12:00:08;;;;;;;0.40;0.40;;;15.30;76.00;;;;;;5012241;28;20061;-84
2024/02/03 12:02:33;;;;;;;0.20;0.20;;;15.30;75.50;;;;;;4967951;28;20430;-84
2024/02/03 12:04:59;;;;;;;0.20;0.20;;;15.30;75.50;;;;;;4997070;28;20034;-84
2024/02/03 12:07:25;;;;;;;1.00;0.38;;;15.30;75.50;;;;;;4999804;28;20034;-84
2024/02/03 12:09:50;;;;;;;0.32;0.20;;;15.30;75.40;;;;;;4999203;28;20070;-85
2024/02/03 12:12:16;;;;;;;1.95;0.43;;;15.30;75.10;;;;;;4999434;28;20030;-85
2024/02/03 12:14:41;;;;;;;0.30;0.30;;;15.30;75.20;;;;;;5000662;28;20038;-84
2024/02/03 12:17:08;;;;;;;0.80;0.55;;;15.30;74.90;;;;;;4997894;28;20042;-85
2024/02/03 12:19:35;;;;;;;1.67;0.30;;;15.30;74.80;;;;;;5014075;28;20038;-85
2024/02/03 12:22:01;;;;;;;0.52;0.20;;;15.30;74.60;;;;;;4996003;28;20041;-84
2024/02/03 12:24:26;;;;;;;0.10;0.10;;;15.30;74.60;;;;;;5014403;28;20042;-85
2024/02/03 12:26:52;;;;;;;0.25;0.25;;;15.30;75.10;;;;;;5000276;28;20037;-84
2024/02/03 12:29:18;;;;;;;1.45;0.35;;;15.30;74.60;;;;;;4985379;28;20034;-85
2024/02/03 12:31:43;;;;;;;0.43;0.28;;;15.30;74.30;;;;;;5001155;28;20541;-84
2024/02/03 12:34:09;;;;;;;0.30;0.20;;;15.30;74.40;;;;;;5001280;28;20046;-84
2024/02/03 12:36:35;;;;;;;1.10;0.30;;;15.30;75.10;;;;;;5017499;28;20046;-85
2024/02/03 12:39:00;;;;;;;0.22;0.22;;;15.30;74.20;;;;;;4985156;28;20053;-85